sensor_id;sensor_type;location;lat;lon;timestamp;P1;durP1;ratioP1;P2;durP2;ratioP2
51244;SDS011;37840;47.562;18.738;2023-10-19T00:01:10;9.05;;;7.78;;
51244;SDS011;37840;47.562;18.738;2023-10-19T00:03:37;10.30;;;7.83;;
51244;SDS011;37840;47.562;18.738;2023-10-19T00:06:03;11.30;;;8.18;;
51244;SDS011;37840;47.562;18.738;2023-10-19T00:08:30;13.32;;;8.40;;
51244;SDS011;37840;47.562;18.738;2023-10-19T00:11:09;10.65;;;7.97;;
51244;SDS011;37840;47.562;18.738;2023-10-19T00:13:46;11.25;;;8.82;;
51244;SDS011;37840;47.562;18.738;2023-10-19T00:16:15;11.45;;;8.60;;
51244;SDS011;37840;47.562;18.738;2023-10-19T00:18:49;10.15;;;8.02;;
51244;SDS011;37840;47.562;18.738;2023-10-19T00:21:15;12.25;;;8.07;;
51244;SDS011;37840;47.562;18.738;2023-10-19T00:23:46;13.02;;;7.60;;
51244;SDS011;37840;47.562;18.738;2023-10-19T00:26:13;10.57;;;8.40;;
51244;SDS011;37840;47.562;18.738;2023-10-19T00:28:45;11.73;;;7.80;;
51244;SDS011;37840;47.562;18.738;2023-10-19T00:31:15;12.25;;;7.97;;
51244;SDS011;37840;47.562;18.738;2023-10-19T00:33:41;11.35;;;8.13;;
51244;SDS011;37840;47.562;18.738;2023-10-19T00:36:10;12.70;;;7.97;;
51244;SDS011;37840;47.562;18.738;2023-10-19T00:38:39;9.73;;;8.20;;
51244;SDS011;37840;47.562;18.738;2023-10-19T00:41:21;13.43;;;7.70;;
51244;SDS011;37840;47.562;18.738;2023-10-19T00:43:55;11.20;;;8.18;;
51244;SDS011;37840;47.562;18.738;2023-10-19T00:46:29;15.90;;;8.40;;
51244;SDS011;37840;47.562;18.738;2023-10-19T00:49:03;11.75;;;8.38;;
51244;SDS011;37840;47.562;18.738;2023-10-19T00:54:30;14.00;;;9.07;;
51244;SDS011;37840;47.562;18.738;2023-10-19T00:57:01;10.93;;;9.15;;
51244;SDS011;37840;47.562;18.738;2023-10-19T00:59:38;11.38;;;9.20;;
51244;SDS011;37840;47.562;18.738;2023-10-19T01:02:15;12.30;;;9.23;;
51244;SDS011;37840;47.562;18.738;2023-10-19T01:04:52;11.68;;;9.70;;
51244;SDS011;37840;47.562;18.738;2023-10-19T01:07:22;14.32;;;11.02;;
51244;SDS011;37840;47.562;18.738;2023-10-19T01:09:51;16.30;;;10.77;;
51244;SDS011;37840;47.562;18.738;2023-10-19T01:12:19;17.98;;;11.23;;
51244;SDS011;37840;47.562;18.738;2023-10-19T01:17:53;15.27;;;11.07;;
51244;SDS011;37840;47.562;18.738;2023-10-19T01:23:00;17.60;;;12.23;;
51244;SDS011;37840;47.562;18.738;2023-10-19T01:25:43;17.83;;;12.68;;
51244;SDS011;37840;47.562;18.738;2023-10-19T01:28:26;17.87;;;12.45;;
51244;SDS011;37840;47.562;18.738;2023-10-19T01:31:14;16.05;;;13.80;;
51244;SDS011;37840;47.562;18.738;2023-10-19T01:34:02;17.85;;;13.77;;
51244;SDS011;37840;47.562;18.738;2023-10-19T01:36:31;19.92;;;14.48;;
51244;SDS011;37840;47.562;18.738;2023-10-19T01:39:07;16.55;;;13.98;;
51244;SDS011;37840;47.562;18.738;2023-10-19T01:41:37;17.87;;;14.27;;
51244;SDS011;37840;47.562;18.738;2023-10-19T01:44:05;20.42;;;15.55;;
51244;SDS011;37840;47.562;18.738;2023-10-19T01:46:32;18.92;;;16.33;;
51244;SDS011;37840;47.562;18.738;2023-10-19T01:49:00;22.75;;;16.42;;
51244;SDS011;37840;47.562;18.738;2023-10-19T01:51:28;22.27;;;16.75;;
51244;SDS011;37840;47.562;18.738;2023-10-19T01:53:58;21.03;;;16.60;;
51244;SDS011;37840;47.562;18.738;2023-10-19T01:56:26;19.45;;;16.55;;
51244;SDS011;37840;47.562;18.738;2023-10-19T01:58:53;21.35;;;17.30;;
51244;SDS011;37840;47.562;18.738;2023-10-19T02:01:20;23.65;;;17.33;;
51244;SDS011;37840;47.562;18.738;2023-10-19T02:04:03;26.15;;;18.35;;
51244;SDS011;37840;47.562;18.738;2023-10-19T02:06:32;21.92;;;17.77;;
51244;SDS011;37840;47.562;18.738;2023-10-19T02:09:03;24.45;;;19.12;;
51244;SDS011;37840;47.562;18.738;2023-10-19T02:11:46;23.30;;;18.30;;
51244;SDS011;37840;47.562;18.738;2023-10-19T02:14:14;20.15;;;16.98;;
51244;SDS011;37840;47.562;18.738;2023-10-19T02:16:41;24.58;;;17.83;;
51244;SDS011;37840;47.562;18.738;2023-10-19T02:19:18;24.45;;;19.35;;
51244;SDS011;37840;47.562;18.738;2023-10-19T02:21:51;24.35;;;18.33;;
51244;SDS011;37840;47.562;18.738;2023-10-19T02:24:19;23.65;;;18.87;;
51244;SDS011;37840;47.562;18.738;2023-10-19T02:26:45;24.60;;;19.62;;
51244;SDS011;37840;47.562;18.738;2023-10-19T02:29:19;23.67;;;19.95;;
51244;SDS011;37840;47.562;18.738;2023-10-19T02:31:45;28.83;;;20.17;;
51244;SDS011;37840;47.562;18.738;2023-10-19T02:34:13;27.13;;;20.58;;
51244;SDS011;37840;47.562;18.738;2023-10-19T02:36:43;25.17;;;20.27;;
51244;SDS011;37840;47.562;18.738;2023-10-19T02:39:11;29.12;;;20.62;;
51244;SDS011;37840;47.562;18.738;2023-10-19T02:41:40;26.92;;;21.30;;
51244;SDS011;37840;47.562;18.738;2023-10-19T02:44:10;28.38;;;21.25;;
51244;SDS011;37840;47.562;18.738;2023-10-19T02:46:41;27.40;;;21.75;;
51244;SDS011;37840;47.562;18.738;2023-10-19T02:49:08;26.30;;;21.25;;
51244;SDS011;37840;47.562;18.738;2023-10-19T02:51:39;29.33;;;21.77;;
51244;SDS011;37840;47.562;18.738;2023-10-19T02:54:10;28.15;;;22.55;;
51244;SDS011;37840;47.562;18.738;2023-10-19T02:56:51;28.75;;;22.02;;
51244;SDS011;37840;47.562;18.738;2023-10-19T02:59:19;31.30;;;22.75;;
51244;SDS011;37840;47.562;18.738;2023-10-19T03:01:52;28.60;;;23.35;;
51244;SDS011;37840;47.562;18.738;2023-10-19T03:04:26;28.12;;;22.27;;
51244;SDS011;37840;47.562;18.738;2023-10-19T03:06:55;28.17;;;22.45;;
51244;SDS011;37840;47.562;18.738;2023-10-19T03:09:22;30.12;;;23.27;;
51244;SDS011;37840;47.562;18.738;2023-10-19T03:11:53;30.75;;;23.52;;
51244;SDS011;37840;47.562;18.738;2023-10-19T03:14:27;31.27;;;22.75;;
51244;SDS011;37840;47.562;18.738;2023-10-19T03:16:54;29.95;;;23.83;;
51244;SDS011;37840;47.562;18.738;2023-10-19T03:19:21;30.58;;;22.70;;
51244;SDS011;37840;47.562;18.738;2023-10-19T03:21:47;29.20;;;21.98;;
51244;SDS011;37840;47.562;18.738;2023-10-19T03:24:17;31.75;;;23.50;;
51244;SDS011;37840;47.562;18.738;2023-10-19T03:27:06;30.55;;;22.83;;
51244;SDS011;37840;47.562;18.738;2023-10-19T03:29:50;33.50;;;23.87;;
51244;SDS011;37840;47.562;18.738;2023-10-19T03:32:26;28.73;;;23.62;;
51244;SDS011;37840;47.562;18.738;2023-10-19T03:34:52;31.98;;;23.08;;
51244;SDS011;37840;47.562;18.738;2023-10-19T03:37:22;29.65;;;22.50;;
51244;SDS011;37840;47.562;18.738;2023-10-19T03:39:50;29.37;;;21.95;;
51244;SDS011;37840;47.562;18.738;2023-10-19T03:42:17;30.45;;;22.73;;
51244;SDS011;37840;47.562;18.738;2023-10-19T03:44:43;29.85;;;22.42;;
51244;SDS011;37840;47.562;18.738;2023-10-19T03:47:16;27.00;;;21.70;;
51244;SDS011;37840;47.562;18.738;2023-10-19T03:49:46;27.73;;;21.08;;
51244;SDS011;37840;47.562;18.738;2023-10-19T03:52:13;30.73;;;23.30;;
51244;SDS011;37840;47.562;18.738;2023-10-19T03:54:39;29.15;;;22.08;;
51244;SDS011;37840;47.562;18.738;2023-10-19T03:57:06;29.20;;;22.48;;
51244;SDS011;37840;47.562;18.738;2023-10-19T03:59:40;28.62;;;22.20;;
51244;SDS011;37840;47.562;18.738;2023-10-19T04:02:10;29.05;;;22.02;;
51244;SDS011;37840;47.562;18.738;2023-10-19T04:04:39;30.40;;;22.23;;
51244;SDS011;37840;47.562;18.738;2023-10-19T04:07:09;27.35;;;20.80;;
51244;SDS011;37840;47.562;18.738;2023-10-19T04:09:48;29.52;;;22.37;;
51244;SDS011;37840;47.562;18.738;2023-10-19T04:12:38;29.05;;;21.25;;
51244;SDS011;37840;47.562;18.738;2023-10-19T04:15:07;30.02;;;21.90;;
51244;SDS011;37840;47.562;18.738;2023-10-19T04:17:44;25.92;;;20.25;;
51244;SDS011;37840;47.562;18.738;2023-10-19T04:20:11;28.00;;;20.58;;
51244;SDS011;37840;47.562;18.738;2023-10-19T04:22:44;28.60;;;21.77;;
51244;SDS011;37840;47.562;18.738;2023-10-19T04:25:11;28.62;;;21.10;;
51244;SDS011;37840;47.562;18.738;2023-10-19T04:27:41;28.25;;;20.98;;
51244;SDS011;37840;47.562;18.738;2023-10-19T04:30:08;27.30;;;20.40;;
51244;SDS011;37840;47.562;18.738;2023-10-19T04:32:44;30.42;;;21.23;;
51244;SDS011;37840;47.562;18.738;2023-10-19T04:35:11;30.97;;;23.07;;
51244;SDS011;37840;47.562;18.738;2023-10-19T04:37:48;29.02;;;21.35;;
51244;SDS011;37840;47.562;18.738;2023-10-19T04:40:16;27.58;;;20.35;;
51244;SDS011;37840;47.562;18.738;2023-10-19T04:42:42;27.65;;;21.15;;
51244;SDS011;37840;47.562;18.738;2023-10-19T04:45:08;30.62;;;21.40;;
51244;SDS011;37840;47.562;18.738;2023-10-19T04:47:37;30.20;;;20.55;;
51244;SDS011;37840;47.562;18.738;2023-10-19T04:50:03;27.87;;;21.70;;
51244;SDS011;37840;47.562;18.738;2023-10-19T04:52:31;25.73;;;20.48;;
51244;SDS011;37840;47.562;18.738;2023-10-19T04:54:58;26.92;;;19.92;;
51244;SDS011;37840;47.562;18.738;2023-10-19T04:57:24;26.73;;;20.30;;
51244;SDS011;37840;47.562;18.738;2023-10-19T04:59:51;30.17;;;21.80;;
51244;SDS011;37840;47.562;18.738;2023-10-19T05:02:17;29.05;;;20.15;;
51244;SDS011;37840;47.562;18.738;2023-10-19T05:04:43;26.37;;;19.55;;
51244;SDS011;37840;47.562;18.738;2023-10-19T05:07:11;27.20;;;19.12;;
51244;SDS011;37840;47.562;18.738;2023-10-19T05:09:43;25.83;;;19.20;;
51244;SDS011;37840;47.562;18.738;2023-10-19T05:12:10;22.50;;;17.83;;
51244;SDS011;37840;47.562;18.738;2023-10-19T05:14:40;23.17;;;17.48;;
51244;SDS011;37840;47.562;18.738;2023-10-19T05:17:07;23.25;;;17.77;;
51244;SDS011;37840;47.562;18.738;2023-10-19T05:19:38;24.08;;;18.58;;
51244;SDS011;37840;47.562;18.738;2023-10-19T05:22:06;23.75;;;16.98;;
51244;SDS011;37840;47.562;18.738;2023-10-19T05:24:33;21.73;;;16.12;;
51244;SDS011;37840;47.562;18.738;2023-10-19T05:26:58;20.37;;;16.12;;
51244;SDS011;37840;47.562;18.738;2023-10-19T05:29:24;22.50;;;16.08;;
51244;SDS011;37840;47.562;18.738;2023-10-19T05:31:51;20.88;;;15.88;;
51244;SDS011;37840;47.562;18.738;2023-10-19T05:34:23;22.65;;;16.35;;
51244;SDS011;37840;47.562;18.738;2023-10-19T05:36:52;22.75;;;16.05;;
51244;SDS011;37840;47.562;18.738;2023-10-19T05:39:19;19.98;;;15.73;;
51244;SDS011;37840;47.562;18.738;2023-10-19T05:41:46;20.23;;;15.73;;
51244;SDS011;37840;47.562;18.738;2023-10-19T05:44:12;20.25;;;14.70;;
51244;SDS011;37840;47.562;18.738;2023-10-19T05:46:38;18.45;;;14.48;;
51244;SDS011;37840;47.562;18.738;2023-10-19T05:49:06;18.62;;;13.27;;
51244;SDS011;37840;47.562;18.738;2023-10-19T05:51:32;18.80;;;14.82;;
51244;SDS011;37840;47.562;18.738;2023-10-19T05:53:58;19.50;;;15.07;;
51244;SDS011;37840;47.562;18.738;2023-10-19T05:56:28;20.95;;;15.40;;
51244;SDS011;37840;47.562;18.738;2023-10-19T05:58:59;19.30;;;14.93;;
51244;SDS011;37840;47.562;18.738;2023-10-19T06:01:26;19.23;;;14.27;;
51244;SDS011;37840;47.562;18.738;2023-10-19T06:03:52;23.75;;;15.07;;
51244;SDS011;37840;47.562;18.738;2023-10-19T06:06:21;17.62;;;13.98;;
51244;SDS011;37840;47.562;18.738;2023-10-19T06:08:48;19.37;;;14.65;;
51244;SDS011;37840;47.562;18.738;2023-10-19T06:11:15;19.55;;;14.10;;
51244;SDS011;37840;47.562;18.738;2023-10-19T06:13:41;18.85;;;14.20;;
51244;SDS011;37840;47.562;18.738;2023-10-19T06:16:07;19.65;;;14.10;;
51244;SDS011;37840;47.562;18.738;2023-10-19T06:18:33;16.95;;;13.50;;
51244;SDS011;37840;47.562;18.738;2023-10-19T06:20:58;18.75;;;13.90;;
51244;SDS011;37840;47.562;18.738;2023-10-19T06:23:24;18.42;;;14.10;;
51244;SDS011;37840;47.562;18.738;2023-10-19T06:25:50;16.83;;;12.57;;
51244;SDS011;37840;47.562;18.738;2023-10-19T06:28:17;17.05;;;12.68;;
51244;SDS011;37840;47.562;18.738;2023-10-19T06:30:43;17.98;;;12.65;;
51244;SDS011;37840;47.562;18.738;2023-10-19T06:33:09;18.37;;;13.32;;
51244;SDS011;37840;47.562;18.738;2023-10-19T06:35:35;17.65;;;12.60;;
51244;SDS011;37840;47.562;18.738;2023-10-19T06:38:02;18.73;;;13.52;;
51244;SDS011;37840;47.562;18.738;2023-10-19T06:40:34;18.17;;;13.68;;
51244;SDS011;37840;47.562;18.738;2023-10-19T06:43:01;17.42;;;12.50;;
51244;SDS011;37840;47.562;18.738;2023-10-19T06:45:28;20.83;;;13.30;;
51244;SDS011;37840;47.562;18.738;2023-10-19T06:47:57;20.33;;;14.20;;
51244;SDS011;37840;47.562;18.738;2023-10-19T06:50:26;19.40;;;14.82;;
51244;SDS011;37840;47.562;18.738;2023-10-19T06:52:52;17.75;;;13.02;;
51244;SDS011;37840;47.562;18.738;2023-10-19T06:55:20;19.60;;;13.57;;
51244;SDS011;37840;47.562;18.738;2023-10-19T06:57:50;17.90;;;13.52;;
51244;SDS011;37840;47.562;18.738;2023-10-19T07:00:20;21.50;;;13.60;;
51244;SDS011;37840;47.562;18.738;2023-10-19T07:02:49;17.98;;;14.00;;
51244;SDS011;37840;47.562;18.738;2023-10-19T07:05:16;19.02;;;13.62;;
51244;SDS011;37840;47.562;18.738;2023-10-19T07:07:44;17.12;;;13.50;;
51244;SDS011;37840;47.562;18.738;2023-10-19T07:10:11;21.40;;;14.13;;
51244;SDS011;37840;47.562;18.738;2023-10-19T07:12:39;20.12;;;14.20;;
51244;SDS011;37840;47.562;18.738;2023-10-19T07:15:07;20.37;;;14.55;;
51244;SDS011;37840;47.562;18.738;2023-10-19T07:17:37;18.85;;;14.95;;
51244;SDS011;37840;47.562;18.738;2023-10-19T07:20:07;18.52;;;14.30;;
51244;SDS011;37840;47.562;18.738;2023-10-19T07:22:42;21.98;;;15.32;;
51244;SDS011;37840;47.562;18.738;2023-10-19T07:25:10;21.00;;;15.40;;
51244;SDS011;37840;47.562;18.738;2023-10-19T07:27:37;17.23;;;13.82;;
51244;SDS011;37840;47.562;18.738;2023-10-19T07:30:02;17.00;;;14.55;;
51244;SDS011;37840;47.562;18.738;2023-10-19T07:32:35;16.75;;;13.35;;
51244;SDS011;37840;47.562;18.738;2023-10-19T07:35:01;16.87;;;13.38;;
51244;SDS011;37840;47.562;18.738;2023-10-19T07:37:27;17.35;;;14.15;;
51244;SDS011;37840;47.562;18.738;2023-10-19T07:39:54;17.35;;;13.50;;
51244;SDS011;37840;47.562;18.738;2023-10-19T07:42:23;20.23;;;14.87;;
51244;SDS011;37840;47.562;18.738;2023-10-19T07:44:49;20.67;;;14.65;;
51244;SDS011;37840;47.562;18.738;2023-10-19T07:47:15;18.65;;;14.73;;
51244;SDS011;37840;47.562;18.738;2023-10-19T07:49:41;18.85;;;14.30;;
51244;SDS011;37840;47.562;18.738;2023-10-19T07:52:08;20.58;;;15.88;;
51244;SDS011;37840;47.562;18.738;2023-10-19T07:54:36;16.70;;;14.15;;
51244;SDS011;37840;47.562;18.738;2023-10-19T07:57:03;17.52;;;14.50;;
51244;SDS011;37840;47.562;18.738;2023-10-19T07:59:33;19.73;;;14.68;;
51244;SDS011;37840;47.562;18.738;2023-10-19T08:02:00;20.60;;;15.25;;
51244;SDS011;37840;47.562;18.738;2023-10-19T08:04:29;17.58;;;13.20;;
51244;SDS011;37840;47.562;18.738;2023-10-19T08:06:59;18.60;;;13.73;;
51244;SDS011;37840;47.562;18.738;2023-10-19T08:09:25;15.80;;;13.25;;
51244;SDS011;37840;47.562;18.738;2023-10-19T08:11:57;18.08;;;13.45;;
51244;SDS011;37840;47.562;18.738;2023-10-19T08:14:25;15.88;;;12.88;;
51244;SDS011;37840;47.562;18.738;2023-10-19T08:16:52;18.75;;;13.32;;
51244;SDS011;37840;47.562;18.738;2023-10-19T08:19:18;17.20;;;13.10;;
51244;SDS011;37840;47.562;18.738;2023-10-19T08:21:45;19.60;;;13.00;;
51244;SDS011;37840;47.562;18.738;2023-10-19T08:24:11;14.63;;;13.05;;
51244;SDS011;37840;47.562;18.738;2023-10-19T08:26:43;13.82;;;12.32;;
51244;SDS011;37840;47.562;18.738;2023-10-19T08:29:13;14.18;;;11.50;;
51244;SDS011;37840;47.562;18.738;2023-10-19T08:31:39;13.60;;;11.57;;
51244;SDS011;37840;47.562;18.738;2023-10-19T08:34:07;15.43;;;12.88;;
51244;SDS011;37840;47.562;18.738;2023-10-19T08:36:35;17.02;;;12.77;;
51244;SDS011;37840;47.562;18.738;2023-10-19T08:39:06;16.12;;;13.35;;
51244;SDS011;37840;47.562;18.738;2023-10-19T08:41:36;18.20;;;13.23;;
51244;SDS011;37840;47.562;18.738;2023-10-19T08:44:06;16.50;;;12.65;;
51244;SDS011;37840;47.562;18.738;2023-10-19T08:46:41;15.27;;;13.05;;
51244;SDS011;37840;47.562;18.738;2023-10-19T08:49:13;15.55;;;12.37;;
51244;SDS011;37840;47.562;18.738;2023-10-19T08:51:44;15.65;;;12.10;;
51244;SDS011;37840;47.562;18.738;2023-10-19T08:54:12;17.37;;;13.10;;
51244;SDS011;37840;47.562;18.738;2023-10-19T08:56:39;17.85;;;12.30;;
51244;SDS011;37840;47.562;18.738;2023-10-19T08:59:07;17.98;;;13.15;;
51244;SDS011;37840;47.562;18.738;2023-10-19T09:01:33;16.05;;;13.15;;
51244;SDS011;37840;47.562;18.738;2023-10-19T09:04:02;15.70;;;12.80;;
51244;SDS011;37840;47.562;18.738;2023-10-19T09:06:34;18.48;;;13.27;;
51244;SDS011;37840;47.562;18.738;2023-10-19T09:09:07;16.05;;;13.15;;
51244;SDS011;37840;47.562;18.738;2023-10-19T09:11:35;16.55;;;13.20;;
51244;SDS011;37840;47.562;18.738;2023-10-19T09:14:01;14.70;;;12.55;;
51244;SDS011;37840;47.562;18.738;2023-10-19T09:16:29;19.17;;;13.18;;
51244;SDS011;37840;47.562;18.738;2023-10-19T09:18:56;16.70;;;13.43;;
51244;SDS011;37840;47.562;18.738;2023-10-19T09:21:22;16.15;;;13.18;;
51244;SDS011;37840;47.562;18.738;2023-10-19T09:23:52;16.37;;;12.70;;
51244;SDS011;37840;47.562;18.738;2023-10-19T09:26:20;16.17;;;12.93;;
51244;SDS011;37840;47.562;18.738;2023-10-19T09:28:48;16.45;;;13.55;;
51244;SDS011;37840;47.562;18.738;2023-10-19T09:31:15;15.70;;;12.13;;
51244;SDS011;37840;47.562;18.738;2023-10-19T09:33:43;15.48;;;13.45;;
51244;SDS011;37840;47.562;18.738;2023-10-19T09:36:10;16.60;;;13.02;;
51244;SDS011;37840;47.562;18.738;2023-10-19T09:38:44;16.23;;;13.80;;
51244;SDS011;37840;47.562;18.738;2023-10-19T09:41:15;15.63;;;13.35;;
51244;SDS011;37840;47.562;18.738;2023-10-19T09:43:44;15.52;;;13.23;;
51244;SDS011;37840;47.562;18.738;2023-10-19T09:46:26;15.18;;;13.23;;
51244;SDS011;37840;47.562;18.738;2023-10-19T09:48:54;15.90;;;13.68;;
51244;SDS011;37840;47.562;18.738;2023-10-19T09:51:21;15.38;;;13.55;;
51244;SDS011;37840;47.562;18.738;2023-10-19T09:53:53;16.10;;;14.35;;
51244;SDS011;37840;47.562;18.738;2023-10-19T09:56:38;16.27;;;14.55;;
51244;SDS011;37840;47.562;18.738;2023-10-19T09:59:11;16.90;;;15.10;;
51244;SDS011;37840;47.562;18.738;2023-10-19T10:02:04;21.05;;;14.35;;
51244;SDS011;37840;47.562;18.738;2023-10-19T10:04:31;18.85;;;13.70;;
51244;SDS011;37840;47.562;18.738;2023-10-19T10:06:58;18.23;;;15.18;;
51244;SDS011;37840;47.562;18.738;2023-10-19T10:09:25;17.08;;;13.85;;
51244;SDS011;37840;47.562;18.738;2023-10-19T10:11:52;16.87;;;14.27;;
51244;SDS011;37840;47.562;18.738;2023-10-19T10:14:22;15.60;;;13.98;;
51244;SDS011;37840;47.562;18.738;2023-10-19T10:17:04;18.62;;;14.60;;
51244;SDS011;37840;47.562;18.738;2023-10-19T10:19:35;19.45;;;15.20;;
51244;SDS011;37840;47.562;18.738;2023-10-19T10:22:08;17.48;;;13.82;;
51244;SDS011;37840;47.562;18.738;2023-10-19T10:24:40;17.30;;;13.82;;
51244;SDS011;37840;47.562;18.738;2023-10-19T10:27:07;16.50;;;13.85;;
51244;SDS011;37840;47.562;18.738;2023-10-19T10:29:33;17.80;;;14.30;;
51244;SDS011;37840;47.562;18.738;2023-10-19T10:31:59;18.02;;;14.63;;
51244;SDS011;37840;47.562;18.738;2023-10-19T10:37:04;19.27;;;14.40;;
51244;SDS011;37840;47.562;18.738;2023-10-19T10:39:33;22.10;;;15.20;;
51244;SDS011;37840;47.562;18.738;2023-10-19T10:42:04;17.52;;;14.55;;
51244;SDS011;37840;47.562;18.738;2023-10-19T10:47:26;18.15;;;14.30;;
51244;SDS011;37840;47.562;18.738;2023-10-19T10:49:52;15.20;;;12.40;;
51244;SDS011;37840;47.562;18.738;2023-10-19T10:52:31;16.05;;;12.90;;
51244;SDS011;37840;47.562;18.738;2023-10-19T10:55:06;16.10;;;12.48;;
51244;SDS011;37840;47.562;18.738;2023-10-19T10:57:40;16.17;;;13.32;;
51244;SDS011;37840;47.562;18.738;2023-10-19T11:00:08;14.90;;;12.37;;
51244;SDS011;37840;47.562;18.738;2023-10-19T11:02:58;15.15;;;12.40;;
51244;SDS011;37840;47.562;18.738;2023-10-19T11:05:25;13.20;;;10.43;;
51244;SDS011;37840;47.562;18.738;2023-10-19T11:08:05;16.25;;;12.95;;
51244;SDS011;37840;47.562;18.738;2023-10-19T11:10:39;14.13;;;11.98;;
51244;SDS011;37840;47.562;18.738;2023-10-19T11:13:08;14.25;;;11.45;;
51244;SDS011;37840;47.562;18.738;2023-10-19T11:15:37;14.90;;;11.77;;
51244;SDS011;37840;47.562;18.738;2023-10-19T11:18:04;12.30;;;10.20;;
51244;SDS011;37840;47.562;18.738;2023-10-19T11:20:35;14.65;;;11.43;;
51244;SDS011;37840;47.562;18.738;2023-10-19T11:23:01;11.68;;;10.48;;
51244;SDS011;37840;47.562;18.738;2023-10-19T11:25:28;18.05;;;11.10;;
51244;SDS011;37840;47.562;18.738;2023-10-19T11:27:56;11.40;;;9.90;;
51244;SDS011;37840;47.562;18.738;2023-10-19T11:30:24;14.25;;;11.12;;
51244;SDS011;37840;47.562;18.738;2023-10-19T11:32:51;13.52;;;10.65;;
51244;SDS011;37840;47.562;18.738;2023-10-19T11:35:19;12.55;;;10.30;;
51244;SDS011;37840;47.562;18.738;2023-10-19T11:40:20;10.95;;;9.75;;
51244;SDS011;37840;47.562;18.738;2023-10-19T11:42:47;14.95;;;10.80;;
51244;SDS011;37840;47.562;18.738;2023-10-19T11:45:14;16.00;;;10.80;;
51244;SDS011;37840;47.562;18.738;2023-10-19T11:47:45;13.05;;;9.75;;
51244;SDS011;37840;47.562;18.738;2023-10-19T11:50:12;18.62;;;10.07;;
51244;SDS011;37840;47.562;18.738;2023-10-19T11:52:40;14.15;;;10.52;;
51244;SDS011;37840;47.562;18.738;2023-10-19T11:55:09;16.48;;;9.98;;
51244;SDS011;37840;47.562;18.738;2023-10-19T11:57:35;15.70;;;10.45;;
51244;SDS011;37840;47.562;18.738;2023-10-19T12:00:04;10.98;;;9.55;;
51244;SDS011;37840;47.562;18.738;2023-10-19T12:02:45;15.45;;;9.48;;
51244;SDS011;37840;47.562;18.738;2023-10-19T12:05:11;11.77;;;10.20;;
51244;SDS011;37840;47.562;18.738;2023-10-19T12:07:37;12.80;;;9.95;;
51244;SDS011;37840;47.562;18.738;2023-10-19T12:10:07;15.10;;;10.35;;
51244;SDS011;37840;47.562;18.738;2023-10-19T12:12:34;15.52;;;10.05;;
51244;SDS011;37840;47.562;18.738;2023-10-19T12:15:00;10.88;;;8.80;;
51244;SDS011;37840;47.562;18.738;2023-10-19T12:17:28;11.32;;;8.73;;
51244;SDS011;37840;47.562;18.738;2023-10-19T12:19:56;12.13;;;9.35;;
51244;SDS011;37840;47.562;18.738;2023-10-19T12:22:22;11.52;;;9.38;;
51244;SDS011;37840;47.562;18.738;2023-10-19T12:24:50;14.00;;;9.07;;
51244;SDS011;37840;47.562;18.738;2023-10-19T12:27:20;60.60;;;12.27;;
51244;SDS011;37840;47.562;18.738;2023-10-19T12:29:46;11.65;;;9.77;;
51244;SDS011;37840;47.562;18.738;2023-10-19T12:32:12;12.07;;;10.25;;
51244;SDS011;37840;47.562;18.738;2023-10-19T12:34:41;12.10;;;10.32;;
51244;SDS011;37840;47.562;18.738;2023-10-19T12:37:07;16.40;;;10.82;;
51244;SDS011;37840;47.562;18.738;2023-10-19T12:39:35;12.45;;;10.18;;
51244;SDS011;37840;47.562;18.738;2023-10-19T12:42:03;14.40;;;11.07;;
51244;SDS011;37840;47.562;18.738;2023-10-19T12:44:29;13.40;;;10.68;;
51244;SDS011;37840;47.562;18.738;2023-10-19T12:46:57;13.48;;;10.77;;
51244;SDS011;37840;47.562;18.738;2023-10-19T12:49:24;18.77;;;12.05;;
51244;SDS011;37840;47.562;18.738;2023-10-19T12:51:51;14.20;;;11.12;;
51244;SDS011;37840;47.562;18.738;2023-10-19T12:54:18;28.75;;;11.00;;
51244;SDS011;37840;47.562;18.738;2023-10-19T12:56:44;14.90;;;10.38;;
51244;SDS011;37840;47.562;18.738;2023-10-19T12:59:10;15.05;;;11.27;;
51244;SDS011;37840;47.562;18.738;2023-10-19T13:01:36;11.50;;;9.70;;
51244;SDS011;37840;47.562;18.738;2023-10-19T13:04:02;14.10;;;11.00;;
51244;SDS011;37840;47.562;18.738;2023-10-19T13:06:39;12.77;;;10.60;;
51244;SDS011;37840;47.562;18.738;2023-10-19T13:09:05;15.02;;;10.93;;
51244;SDS011;37840;47.562;18.738;2023-10-19T13:11:34;16.12;;;10.63;;
51244;SDS011;37840;47.562;18.738;2023-10-19T13:14:00;15.25;;;10.27;;
51244;SDS011;37840;47.562;18.738;2023-10-19T13:16:26;16.40;;;9.90;;
51244;SDS011;37840;47.562;18.738;2023-10-19T13:18:53;13.62;;;10.00;;
51244;SDS011;37840;47.562;18.738;2023-10-19T13:21:19;10.95;;;9.10;;
51244;SDS011;37840;47.562;18.738;2023-10-19T13:23:53;11.85;;;9.57;;
51244;SDS011;37840;47.562;18.738;2023-10-19T13:26:19;9.35;;;8.27;;
51244;SDS011;37840;47.562;18.738;2023-10-19T13:28:45;11.68;;;9.20;;
51244;SDS011;37840;47.562;18.738;2023-10-19T13:31:12;12.35;;;8.75;;
51244;SDS011;37840;47.562;18.738;2023-10-19T13:33:42;17.60;;;9.13;;
51244;SDS011;37840;47.562;18.738;2023-10-19T13:36:09;10.70;;;8.35;;
51244;SDS011;37840;47.562;18.738;2023-10-19T13:38:35;12.95;;;8.23;;
51244;SDS011;37840;47.562;18.738;2023-10-19T13:41:04;10.43;;;7.55;;
51244;SDS011;37840;47.562;18.738;2023-10-19T13:43:35;9.30;;;7.28;;
51244;SDS011;37840;47.562;18.738;2023-10-19T13:46:01;13.52;;;8.30;;
51244;SDS011;37840;47.562;18.738;2023-10-19T13:48:27;9.90;;;7.47;;
51244;SDS011;37840;47.562;18.738;2023-10-19T13:50:53;9.88;;;8.02;;
51244;SDS011;37840;47.562;18.738;2023-10-19T13:53:26;9.55;;;7.97;;
51244;SDS011;37840;47.562;18.738;2023-10-19T13:55:52;12.20;;;8.38;;
51244;SDS011;37840;47.562;18.738;2023-10-19T13:58:18;9.45;;;7.37;;
51244;SDS011;37840;47.562;18.738;2023-10-19T14:00:44;9.10;;;7.30;;
51244;SDS011;37840;47.562;18.738;2023-10-19T14:03:13;10.90;;;7.37;;
51244;SDS011;37840;47.562;18.738;2023-10-19T14:05:40;9.82;;;7.78;;
51244;SDS011;37840;47.562;18.738;2023-10-19T14:08:13;9.10;;;7.78;;
51244;SDS011;37840;47.562;18.738;2023-10-19T14:10:41;12.55;;;8.10;;
51244;SDS011;37840;47.562;18.738;2023-10-19T14:13:08;10.82;;;7.75;;
51244;SDS011;37840;47.562;18.738;2023-10-19T14:15:34;9.43;;;7.40;;
51244;SDS011;37840;47.562;18.738;2023-10-19T14:18:02;10.02;;;7.65;;
51244;SDS011;37840;47.562;18.738;2023-10-19T14:20:29;11.05;;;8.45;;
51244;SDS011;37840;47.562;18.738;2023-10-19T14:23:00;9.82;;;8.20;;
51244;SDS011;37840;47.562;18.738;2023-10-19T14:25:27;9.73;;;8.10;;
51244;SDS011;37840;47.562;18.738;2023-10-19T14:27:55;10.25;;;8.32;;
51244;SDS011;37840;47.562;18.738;2023-10-19T14:30:25;9.43;;;7.60;;
51244;SDS011;37840;47.562;18.738;2023-10-19T14:32:53;11.18;;;8.30;;
51244;SDS011;37840;47.562;18.738;2023-10-19T14:35:20;12.55;;;8.30;;
51244;SDS011;37840;47.562;18.738;2023-10-19T14:37:49;10.07;;;7.45;;
51244;SDS011;37840;47.562;18.738;2023-10-19T14:40:21;8.80;;;7.28;;